FW1108 Port of Iona CA current weather conditions

sailwx.info

Wind from 185 at 1 knots gusting 6

Air temperature 12.2° C
Dewpoint 11.0° C

Last reported at 2020-Jul-06 04:58 UTC.
Time now 2020-Jul-06 06:01 UTC

Location: N 45°58' W 060°48'.
View on Google Maps.

See reports from other nearby stations

  
Tides and Currents Weather Stations Pressure Air Temp Water Temp Dewpoint Dewpoint Depression Visibility Wind Speed Wind Dir Waves Ship Positions
date/time (UTC)wind fromknots sea level pressurealtimeterstation pressurevisibilityair tempwater tempwave heightnotes
2020-Jul-06 04:58 185 1 gusting 6 12.2
2020-Jul-06 04:43 131 2 gusting 4 12.2
2020-Jul-06 04:23 131 3 gusting 6 12.2
2020-Jul-06 04:03 133 3 gusting 6 12.2
2020-Jul-06 03:48 141 2 gusting 3 12.2
2020-Jul-06 03:28 142 12.2
2020-Jul-06 03:08 142 1 gusting 3 12.2
2020-Jul-06 02:49 155 2 gusting 6 12.2
2020-Jul-06 02:33 147 2 gusting 5 12.2
2020-Jul-06 02:13 130 4 gusting 6 12.2
2020-Jul-06 01:53 163 4 gusting 6 12.2
2020-Jul-06 01:38 142 4 gusting 7 12.2
2020-Jul-06 01:18 175 6 gusting 9 12.8
2020-Jul-06 00:59 154 6 gusting 8 12.8
2020-Jul-06 00:43 146 6 gusting 9 12.8
2020-Jul-06 00:23 147 6 gusting 12 13.3
2020-Jul-06 00:08 179 7 gusting 13 13.3
2020-Jul-05 23:48 178 6 gusting 14 13.3
2020-Jul-05 23:28 169 10 gusting 16 13.3
2020-Jul-05 23:08 162 7 gusting 13 13.3
2020-Jul-05 22:53 179 7 gusting 13 13.3
2020-Jul-05 22:33 202 6 gusting 12 13.9
2020-Jul-05 22:13 193 7 gusting 13 14.4
2020-Jul-05 21:58 192 11 gusting 17 14.4
2020-Jul-05 21:38 204 9 gusting 16 15.0
2020-Jul-05 21:18 196 7 gusting 13 15.6
2020-Jul-05 20:58 210 7 gusting 11 16.1
2020-Jul-05 20:38 204 8 gusting 11 16.1
2020-Jul-05 20:18 225 8 gusting 10 16.1
2020-Jul-05 19:58 211 5 gusting 10 16.1
2020-Jul-05 19:39 198 4 gusting 8 16.1
2020-Jul-05 19:23 223 4 gusting 6 16.1
2020-Jul-05 19:04 214 3 gusting 8 16.1
2020-Jul-05 18:48 208 5 gusting 8 15.6
2020-Jul-05 18:29 216 7 gusting 11 15.0
2020-Jul-05 18:13 213 6 gusting 9 15.0
2020-Jul-05 17:54 210 6 gusting 10 15.0
2020-Jul-05 17:38 221 7 gusting 11 14.4
2020-Jul-05 17:18 199 6 gusting 10 14.4
2020-Jul-05 17:03 239 5 gusting 8 13.9
2020-Jul-05 16:43 229 6 gusting 8 13.9
2020-Jul-05 16:24 225 4 gusting 6 13.9
2020-Jul-05 16:08 206 4 gusting 6 13.3
2020-Jul-05 15:53 212 5 gusting 7 13.3
2020-Jul-05 15:33 221 3 gusting 7 13.3
2020-Jul-05 15:18 227 6 gusting 9 13.3
2020-Jul-05 15:03 223 7 gusting 10 13.3
2020-Jul-05 14:48 224 6 gusting 9 13.3
2020-Jul-05 14:28 213 7 gusting 9 12.8
2020-Jul-05 14:08 168 6 gusting 10 12.8
2020-Jul-05 13:49 075 12.2
2020-Jul-05 13:34 075 2 gusting 4 12.2
2020-Jul-05 13:18 050 1 gusting 4 11.7
2020-Jul-05 12:58 025 3 gusting 6 11.7
2020-Jul-05 12:38 029 3 gusting 4 11.7
2020-Jul-05 12:18 048 2 gusting 5 11.7
2020-Jul-05 11:58 065 3 gusting 6 11.7
2020-Jul-05 11:39 079 2 gusting 4 11.1
2020-Jul-05 11:18 090 4 gusting 5 11.1
2020-Jul-05 11:03 135 2 gusting 6 11.1
2020-Jul-05 10:48 095 4 gusting 7 10.6
2020-Jul-05 10:29 101 4 gusting 7 10.6
2020-Jul-05 10:08 097 5 gusting 8 10.6
2020-Jul-05 09:49 122 4 gusting 8 10.6
2020-Jul-05 09:28 108 5 gusting 7 10.0
2020-Jul-05 09:08 116 5 gusting 7 10.6
2020-Jul-05 08:53 115 5 gusting 6 10.6
2020-Jul-05 08:28 122 3 gusting 6 10.6
2020-Jul-05 08:08 101 6 gusting 8 10.6
2020-Jul-05 07:48 110 4 gusting 7 10.6
2020-Jul-05 07:33 118 6 gusting 8 10.6
2020-Jul-05 07:13 140 3 gusting 6 10.6
2020-Jul-05 06:58 137 4 gusting 7 10.6
2020-Jul-05 06:38 131 6 gusting 7 10.6
2020-Jul-05 06:23 135 6 gusting 8 10.6
2020-Jul-05 06:08 140 6 gusting 8 10.6
2020-Jul-05 05:48 145 8 gusting 10 10.6
2020-Jul-05 05:33 131 6 gusting 7 10.6
2020-Jul-05 05:18 112 5 gusting 8 10.6
2020-Jul-05 04:58 117 5 gusting 9 10.6
2020-Jul-05 04:39 126 6 gusting 10 11.1
2020-Jul-05 04:19 117 8 gusting 9 11.1
2020-Jul-05 04:03 126 5 gusting 7 11.1
2020-Jul-05 03:48 136 5 gusting 8 11.1
2020-Jul-05 03:28 120 6 gusting 8 11.1
2020-Jul-05 03:08 119 7 gusting 9 11.1
2020-Jul-05 02:53 124 6 gusting 8 11.1
2020-Jul-05 02:33 126 7 gusting 9 11.7
2020-Jul-05 02:14 126 6 gusting 8 11.7
2020-Jul-05 01:58 117 6 gusting 7 11.7
2020-Jul-05 01:39 131 6 gusting 9 11.7
2020-Jul-05 01:24 115 7 gusting 10 11.7
2020-Jul-05 01:03 104 6 gusting 10 11.7
2020-Jul-05 00:44 123 7 gusting 10 12.2
2020-Jul-05 00:24 142 8 gusting 10 12.2
2020-Jul-05 00:03 153 6 gusting 9 12.2
2020-Jul-04 23:38 129 7 gusting 12 12.2
2020-Jul-04 23:19 131 6 gusting 11 12.8
2020-Jul-04 22:59 119 7 gusting 10 12.8
2020-Jul-04 22:43 127 8 gusting 12 13.3
2020-Jul-04 22:23 143 9 gusting 12 13.3
2020-Jul-04 22:03 128 7 gusting 9 13.3
2020-Jul-04 21:48 119 9 gusting 13 13.9
2020-Jul-04 21:28 133 8 gusting 12 13.9
2020-Jul-04 21:08 122 8 gusting 10 14.4
2020-Jul-04 20:49 125 7 gusting 11 14.4
2020-Jul-04 20:33 125 8 gusting 12 14.4
2020-Jul-04 20:18 117 6 gusting 11 14.4
2020-Jul-04 19:58 111 8 gusting 13 14.4
2020-Jul-04 19:43 135 9 gusting 11 14.4
2020-Jul-04 19:23 135 7 gusting 10 15.0
2020-Jul-04 19:08 116 7 gusting 12 15.0
2020-Jul-04 18:49 092 6 gusting 10 15.0
2020-Jul-04 18:28 141 7 gusting 11 15.0
2020-Jul-04 18:08 108 9 gusting 12 15.0
2020-Jul-04 17:49 125 3 gusting 9 15.0
2020-Jul-04 17:34 124 7 gusting 10 15.0
2020-Jul-04 17:18 125 6 gusting 11 15.0
2020-Jul-04 16:58 120 7 gusting 14 15.0
2020-Jul-04 16:43 130 15 gusting 20 15.0
2020-Jul-04 16:28 127 9 gusting 13 15.0
2020-Jul-04 16:09 090 9 gusting 12 14.4
2020-Jul-04 15:49 096 8 gusting 11 14.4
2020-Jul-04 15:34 096 2 gusting 8 14.4
2020-Jul-04 15:18 090 8 gusting 14 14.4
2020-Jul-04 14:59 120 7 gusting 12 14.4
2020-Jul-04 14:43 104 1 gusting 5 14.4
2020-Jul-04 14:28 050 13.9
2020-Jul-04 14:09 164 0 gusting 4 13.3
2020-Jul-04 13:48 139 4 gusting 11 13.3
2020-Jul-04 13:29 177 6 gusting 9 13.9
2020-Jul-04 13:08 135 6 gusting 9 13.9
2020-Jul-04 12:53 071 1 gusting 5 13.3
2020-Jul-04 12:38 137 6 gusting 9 13.3
2020-Jul-04 12:23 098 2 gusting 6 13.3
2020-Jul-04 12:03 128 4 gusting 8 13.3
2020-Jul-04 11:43 128 8 gusting 12 12.8
2020-Jul-04 11:28 133 4 gusting 8 12.8
2020-Jul-04 11:08 115 8 gusting 10 12.8
2020-Jul-04 10:48 123 6 gusting 11 12.2
2020-Jul-04 10:29 126 2 gusting 6 12.2
2020-Jul-04 10:14 107 4 gusting 8 11.7
2020-Jul-04 09:58 131 5 gusting 9 11.7
2020-Jul-04 09:43 088 6 gusting 9 11.7
2020-Jul-04 09:23 118 4 gusting 7 11.7
2020-Jul-04 09:03 117 6 gusting 9 11.7
2020-Jul-04 08:48 123 6 gusting 9 11.7
2020-Jul-04 08:28 117 6 gusting 8 11.7
2020-Jul-04 08:08 108 6 gusting 7 11.7
2020-Jul-04 07:53 111 4 gusting 7 11.7
2020-Jul-04 07:34 103 5 gusting 7 11.7
2020-Jul-04 07:18 132 5 gusting 7 11.7
2020-Jul-04 07:03 144 7 gusting 10 11.7
2020-Jul-04 06:43 133 6 gusting 9 11.7
2020-Jul-04 06:19 122 8 gusting 11 12.2